createdAt,value
2017-11-01T00:01:16.991Z,22.20
2017-11-01T00:03:19.795Z,14.50
2017-11-01T00:05:22.755Z,13.67
2017-11-01T00:07:25.453Z,17.70
2017-11-01T00:09:28.209Z,16.10
2017-11-01T00:11:31.295Z,20.67
2017-11-01T00:13:34.177Z,19.13
2017-11-01T00:15:36.968Z,22.63
2017-11-01T00:17:39.749Z,15.10
2017-11-01T00:19:42.534Z,21.50
2017-11-01T00:21:45.453Z,18.63
2017-11-01T00:23:49.004Z,21.23
2017-11-01T00:25:51.769Z,28.77
2017-11-01T00:27:54.452Z,17.33
2017-11-01T00:29:57.144Z,21.80
2017-11-01T00:32:00.003Z,15.17
2017-11-01T00:34:02.780Z,13.40
2017-11-01T00:36:05.583Z,15.67
2017-11-01T00:38:08.493Z,23.83
2017-11-01T00:40:11.322Z,14.17
2017-11-01T00:42:14.202Z,16.53
2017-11-01T00:44:17.083Z,17.57
2017-11-01T00:46:19.964Z,19.50
2017-11-01T00:48:22.698Z,16.20
2017-11-01T00:50:26.296Z,19.40
2017-11-01T00:52:29.760Z,22.80
2017-11-01T00:54:32.512Z,17.27
2017-11-01T00:56:35.235Z,15.43
2017-11-01T00:58:37.984Z,16.33
2017-11-01T01:00:40.760Z,21.17
2017-11-01T01:02:43.625Z,14.03
2017-11-01T01:04:46.325Z,14.77
2017-11-01T01:06:49.102Z,25.93
2017-11-01T01:08:51.793Z,13.83
2017-11-01T01:10:54.481Z,17.80
2017-11-01T01:12:57.338Z,23.77
2017-11-01T01:15:00.033Z,23.70
2017-11-01T01:17:02.872Z,19.53
2017-11-01T01:19:05.751Z,14.37
2017-11-01T01:21:08.560Z,21.47
2017-11-01T01:23:11.322Z,21.63
2017-11-01T01:25:14.188Z,21.10
2017-11-01T01:27:16.887Z,17.13
2017-11-01T01:29:19.604Z,17.20
2017-11-01T01:31:23.343Z,15.00
2017-11-01T01:33:26.050Z,16.80
2017-11-01T01:35:29.002Z,20.43
2017-11-01T01:37:31.796Z,13.00
2017-11-01T01:39:34.516Z,22.87
2017-11-01T01:41:38.012Z,14.70
2017-11-01T01:43:41.656Z,14.43
2017-11-01T01:45:44.455Z,15.30
2017-11-01T01:47:47.334Z,16.13
2017-11-01T01:49:50.104Z,18.23
2017-11-01T01:51:52.893Z,17.30
2017-11-01T01:53:55.684Z,24.40
2017-11-01T01:56:00.089Z,24.43
2017-11-01T01:58:02.824Z,20.87
2017-11-01T02:00:05.725Z,21.50
2017-11-01T02:02:08.496Z,17.50
2017-11-01T02:04:11.256Z,23.43
2017-11-01T02:06:14.059Z,27.27
2017-11-01T02:08:16.940Z,20.33
2017-11-01T02:10:19.871Z,17.83
2017-11-01T02:12:22.576Z,24.13
2017-11-01T02:14:25.498Z,16.70
2017-11-01T02:16:28.277Z,14.17
2017-11-01T02:18:30.976Z,18.43
2017-11-01T02:20:33.784Z,17.90
2017-11-01T02:22:37.412Z,18.23
2017-11-01T02:24:40.193Z,21.30
2017-11-01T02:26:42.939Z,20.37
2017-11-01T02:28:45.873Z,17.47
2017-11-01T02:30:48.606Z,18.23
2017-11-01T02:32:51.409Z,41.17
2017-11-01T02:34:54.926Z,16.33
2017-11-01T02:36:57.688Z,22.30
2017-11-01T02:39:00.482Z,28.00
2017-11-01T02:41:03.272Z,22.23
2017-11-01T02:43:06.128Z,23.67
2017-11-01T02:45:09.103Z,23.87
2017-11-01T02:47:12.013Z,24.83
2017-11-01T02:49:14.866Z,18.23
2017-11-01T02:51:17.608Z,18.30
2017-11-01T02:53:21.124Z,20.93
2017-11-01T02:55:23.944Z,20.40
2017-11-01T02:57:26.686Z,19.80
2017-11-01T02:59:29.448Z,29.63
2017-11-01T03:01:33.073Z,15.90
2017-11-01T03:03:35.971Z,20.30
2017-11-01T03:05:38.723Z,21.47
2017-11-01T03:07:41.612Z,16.17
2017-11-01T03:09:44.390Z,26.63
2017-11-01T03:11:47.272Z,23.43
2017-11-01T03:13:49.999Z,17.90
2017-11-01T03:15:52.766Z,25.10
2017-11-01T03:17:55.528Z,17.63
2017-11-01T03:19:58.300Z,25.50
2017-11-01T03:22:01.057Z,19.20
2017-11-01T03:24:03.839Z,21.67
2017-11-01T03:26:06.738Z,14.90
2017-11-01T03:28:09.603Z,23.33
2017-11-01T03:30:12.483Z,19.87
2017-11-01T03:32:15.251Z,17.00
2017-11-01T03:34:17.992Z,21.90
2017-11-01T03:36:20.727Z,24.73
2017-11-01T03:38:24.627Z,18.07
2017-11-01T03:40:27.376Z,23.23
2017-11-01T03:42:30.281Z,23.27
2017-11-01T03:44:33.082Z,21.60
2017-11-01T03:46:35.876Z,22.03
2017-11-01T03:48:38.628Z,18.30
2017-11-01T03:50:41.371Z,27.33
2017-11-01T03:52:44.406Z,30.47
2017-11-01T03:54:47.259Z,20.73
2017-11-01T03:56:50.140Z,15.80
2017-11-01T03:58:52.915Z,21.97
2017-11-01T04:00:55.807Z,30.53
2017-11-01T04:02:58.679Z,20.90
2017-11-01T04:05:01.412Z,24.13
2017-11-01T04:07:04.971Z,37.30
2017-11-01T04:09:07.749Z,22.70
2017-11-01T04:11:10.525Z,19.87
2017-11-01T04:13:13.272Z,33.17
2017-11-01T04:15:16.067Z,31.23
2017-11-01T04:17:25.526Z,20.90
2017-11-01T04:19:28.279Z,40.10
2017-11-01T04:21:30.986Z,27.17
2017-11-01T04:23:34.018Z,30.60
2017-11-01T04:25:36.943Z,38.37
2017-11-01T04:27:39.670Z,24.43
2017-11-01T04:29:43.213Z,32.73
2017-11-01T04:31:45.950Z,27.73
2017-11-01T04:33:48.779Z,26.47
2017-11-01T04:35:51.634Z,32.37
2017-11-01T04:37:54.384Z,24.77
2017-11-01T04:39:57.893Z,27.00
2017-11-01T04:42:00.685Z,30.67
2017-11-01T04:44:03.593Z,35.00
2017-11-01T04:46:06.547Z,37.20
2017-11-01T04:48:09.537Z,44.30
2017-11-01T04:50:12.263Z,20.87
2017-11-01T04:52:15.027Z,29.80
2017-11-01T04:54:18.616Z,32.33
2017-11-01T04:56:24.363Z,30.90
2017-11-01T04:58:27.239Z,29.30
2017-11-01T05:00:34.092Z,28.90
2017-11-01T05:02:36.972Z,36.40
2017-11-01T05:04:39.936Z,32.53
2017-11-01T05:06:46.655Z,37.20
2017-11-01T05:08:49.433Z,41.50
2017-11-01T05:10:55.218Z,29.70
2017-11-01T05:13:06.455Z,32.23
2017-11-01T05:15:09.413Z,32.90
2017-11-01T05:17:12.294Z,29.47
2017-11-01T05:19:16.755Z,30.53
2017-11-01T05:21:19.693Z,36.10
2017-11-01T05:23:22.483Z,38.37
2017-11-01T05:25:34.174Z,36.10
2017-11-01T05:27:37.007Z,35.17
2017-11-01T05:29:40.638Z,34.73
2017-11-01T05:31:43.436Z,36.53
2017-11-01T05:33:46.202Z,25.33
2017-11-01T05:35:48.966Z,31.00
2017-11-01T05:37:51.710Z,30.13
2017-11-01T05:39:55.488Z,44.17
2017-11-01T05:41:58.452Z,36.17
2017-11-01T05:44:01.317Z,28.23
2017-11-01T05:46:04.197Z,35.10
2017-11-01T05:48:06.993Z,25.50
2017-11-01T05:50:11.826Z,26.60
2017-11-01T05:52:14.672Z,38.97
2017-11-01T05:54:17.565Z,42.53
2017-11-01T05:56:21.170Z,34.57
2017-11-01T05:58:24.052Z,33.83
2017-11-01T06:00:26.950Z,37.67
2017-11-01T06:02:29.915Z,30.47
2017-11-01T06:04:32.653Z,36.50
2017-11-01T06:06:36.280Z,37.13
2017-11-01T06:08:39.086Z,32.17
2017-11-01T06:10:41.816Z,39.80
2017-11-01T06:12:44.724Z,32.47
2017-11-01T06:14:47.603Z,35.07
2017-11-01T06:16:50.483Z,42.83
2017-11-01T06:18:53.237Z,37.27
2017-11-01T06:20:56.144Z,30.93
2017-11-01T06:22:59.023Z,30.17
2017-11-01T06:25:01.903Z,32.07
2017-11-01T06:27:04.667Z,40.13
2017-11-01T06:29:07.564Z,32.83
2017-11-01T06:31:10.443Z,40.33
2017-11-01T06:33:13.221Z,37.10
2017-11-01T06:35:15.965Z,44.63
2017-11-01T06:37:19.496Z,39.50
2017-11-01T06:39:22.243Z,38.67
2017-11-01T06:41:25.874Z,31.90
2017-11-01T06:43:28.885Z,37.93
2017-11-01T06:45:31.841Z,37.23
2017-11-01T06:47:34.642Z,32.80
2017-11-01T06:49:37.497Z,44.30
2017-11-01T06:51:40.393Z,30.60
2017-11-01T06:53:43.182Z,46.60
2017-11-01T06:55:45.933Z,32.70
2017-11-01T06:57:48.689Z,34.83
2017-11-01T06:59:51.498Z,53.27
2017-11-01T07:01:54.481Z,37.40
2017-11-01T07:03:57.277Z,46.03
2017-11-01T07:06:00.053Z,45.97
2017-11-01T07:08:02.788Z,37.80
2017-11-01T07:10:06.415Z,37.73
2017-11-01T07:12:09.296Z,32.97
2017-11-01T07:14:12.176Z,39.57
2017-11-01T07:16:15.057Z,40.93
2017-11-01T07:18:17.792Z,47.73
2017-11-01T07:20:21.435Z,46.97
2017-11-01T07:22:24.314Z,43.80
2017-11-01T07:24:27.053Z,41.13
2017-11-01T07:26:30.691Z,42.13
2017-11-01T07:28:33.649Z,43.70
2017-11-01T07:30:36.363Z,38.97
2017-11-01T07:32:39.127Z,37.53
2017-11-01T07:34:42.105Z,48.20
2017-11-01T07:36:44.915Z,47.50
2017-11-01T07:38:47.695Z,39.00
2017-11-01T07:40:50.400Z,44.90
2017-11-01T07:42:53.945Z,41.63
2017-11-01T07:44:56.752Z,43.13
2017-11-01T07:46:59.495Z,43.93
2017-11-01T07:49:02.303Z,41.27
2017-11-01T07:51:05.160Z,53.60
2017-11-01T07:53:08.384Z,53.27
2017-11-01T07:55:11.870Z,42.20
2017-11-01T07:57:14.723Z,37.60
2017-11-01T07:59:17.605Z,41.17
2017-11-01T08:01:20.313Z,59.57
2017-11-01T08:03:23.161Z,55.47
2017-11-01T08:05:25.940Z,46.07
2017-11-01T08:07:28.823Z,75.10
2017-11-01T08:09:31.871Z,56.03
2017-11-01T08:11:35.359Z,51.23
2017-11-01T08:13:38.835Z,48.93
2017-11-01T08:15:41.537Z,43.63
2017-11-01T08:17:45.278Z,46.57
2017-11-01T08:19:47.976Z,38.83
2017-11-01T08:21:51.038Z,43.97
2017-11-01T08:23:54.032Z,37.60
2017-11-01T08:25:56.745Z,43.20
2017-11-01T08:27:59.497Z,51.20
2017-11-01T08:30:02.357Z,39.33
2017-11-01T08:32:05.357Z,35.60
2017-11-01T08:34:08.147Z,42.60
2017-11-01T08:36:11.022Z,31.23
2017-11-01T08:38:13.808Z,45.83
2017-11-01T08:40:16.656Z,33.90
2017-11-01T08:42:19.407Z,38.50
2017-11-01T08:44:22.623Z,41.03
2017-11-01T08:46:25.503Z,33.50
2017-11-01T08:48:28.487Z,33.50
2017-11-01T08:50:31.266Z,35.10
2017-11-01T08:52:34.009Z,44.07
2017-11-01T08:54:37.642Z,48.53
2017-11-01T08:56:40.368Z,41.00
2017-11-01T08:58:43.222Z,39.07
2017-11-01T09:00:46.002Z,34.70
2017-11-01T09:02:48.858Z,51.27
2017-11-01T09:04:51.574Z,34.73
2017-11-01T09:06:54.292Z,38.23
2017-11-01T09:08:57.021Z,37.50
2017-11-01T09:10:59.870Z,42.67
2017-11-01T09:13:02.694Z,47.13
2017-11-01T09:15:06.905Z,31.63
2017-11-01T09:17:10.420Z,36.00
2017-11-01T09:19:13.893Z,42.87
2017-11-01T09:21:16.631Z,30.27
2017-11-01T09:23:19.366Z,40.97
2017-11-01T09:25:22.837Z,31.97
2017-11-01T09:27:25.806Z,36.40
2017-11-01T09:29:28.786Z,37.13
2017-11-01T09:31:31.544Z,36.57
2017-11-01T09:33:34.269Z,38.50
2017-11-01T09:35:36.978Z,32.13
2017-11-01T09:37:39.968Z,44.67
2017-11-01T09:39:42.683Z,29.03
2017-11-01T09:41:45.562Z,38.27
2017-11-01T09:43:48.260Z,30.33
2017-11-01T09:45:51.016Z,33.63
2017-11-01T09:47:53.773Z,30.87
2017-11-01T09:49:56.579Z,32.67
2017-11-01T09:51:59.433Z,39.77
2017-11-01T09:54:02.334Z,38.47
2017-11-01T09:56:05.119Z,36.13
2017-11-01T09:58:07.849Z,32.23
2017-11-01T10:00:10.671Z,27.40
2017-11-01T10:02:13.735Z,28.47
2017-11-01T10:04:16.640Z,33.70
2017-11-01T10:06:19.393Z,31.07
2017-11-01T10:08:22.133Z,33.13
2017-11-01T10:10:25.771Z,42.00
2017-11-01T10:12:28.530Z,32.17
2017-11-01T10:14:31.228Z,30.10
2017-11-01T10:16:33.946Z,27.03
2017-11-01T10:18:36.683Z,36.90
2017-11-01T10:20:39.483Z,27.03
2017-11-01T10:22:42.447Z,23.27
2017-11-01T10:24:45.172Z,48.57
2017-11-01T10:26:47.869Z,32.70
2017-11-01T10:28:51.597Z,30.30
2017-11-01T10:30:54.478Z,25.80
2017-11-01T10:32:57.234Z,25.47
2017-11-01T10:34:59.960Z,35.77
2017-11-01T10:37:02.679Z,30.00
2017-11-01T10:39:06.204Z,24.47
2017-11-01T10:41:08.916Z,32.20
2017-11-01T10:43:11.628Z,25.70
2017-11-01T10:45:15.157Z,26.57
2017-11-01T10:47:18.063Z,24.90
2017-11-01T10:49:20.788Z,30.30
2017-11-01T10:51:24.310Z,29.97
2017-11-01T10:53:27.506Z,26.10
2017-11-01T10:55:30.281Z,25.70
2017-11-01T10:57:33.263Z,26.57
2017-11-01T10:59:36.060Z,29.13
2017-11-01T11:01:38.882Z,43.63
2017-11-01T11:03:43.661Z,55.33
2017-11-01T11:05:46.529Z,36.50
2017-11-01T11:07:49.244Z,31.40
2017-11-01T11:09:51.996Z,34.70
2017-11-01T11:11:54.861Z,31.27
2017-11-01T11:13:57.672Z,38.17
2017-11-01T11:16:00.521Z,33.33
2017-11-01T11:18:03.229Z,58.10
2017-11-01T11:20:06.227Z,29.30
2017-11-01T11:22:08.983Z,39.90
2017-11-01T11:24:11.840Z,30.13
2017-11-01T11:26:14.722Z,34.30
2017-11-01T11:28:17.417Z,36.10
2017-11-01T11:30:20.194Z,26.50
2017-11-01T11:32:22.934Z,30.97
2017-11-01T11:34:25.833Z,37.57
2017-11-01T11:36:28.715Z,28.10
2017-11-01T11:38:31.535Z,28.27
2017-11-01T11:40:34.484Z,20.63
2017-11-01T11:42:37.358Z,27.20
2017-11-01T11:44:40.417Z,35.00
2017-11-01T11:46:43.122Z,25.30
2017-11-01T11:48:45.856Z,28.90
2017-11-01T11:50:49.390Z,21.50
2017-11-01T11:52:52.171Z,32.03
2017-11-01T11:54:55.798Z,26.60
2017-11-01T11:56:58.752Z,31.27
2017-11-01T11:59:01.548Z,28.23
2017-11-01T12:01:04.413Z,22.53
2017-11-01T12:03:07.291Z,26.90
2017-11-01T12:05:10.016Z,21.10
2017-11-01T12:07:13.670Z,24.30
2017-11-01T12:09:16.552Z,19.67
2017-11-01T12:11:19.274Z,21.23
2017-11-01T12:13:23.029Z,19.50
2017-11-01T12:15:25.825Z,28.60
2017-11-01T12:17:28.574Z,26.47
2017-11-01T12:19:31.462Z,26.97
2017-11-01T12:21:34.258Z,21.93
2017-11-01T12:23:37.127Z,20.33
2017-11-01T12:25:40.111Z,17.53
2017-11-01T12:27:42.887Z,27.20
2017-11-01T12:29:45.770Z,20.73
2017-11-01T12:31:48.475Z,26.50
2017-11-01T12:33:51.188Z,22.67
2017-11-01T12:35:54.826Z,20.97
2017-11-01T12:37:57.703Z,31.33
2017-11-01T12:40:00.507Z,23.43
2017-11-01T12:42:03.213Z,18.90
2017-11-01T12:44:06.785Z,23.83
2017-11-01T12:46:09.738Z,22.17
2017-11-01T12:48:12.516Z,26.23
2017-11-01T12:50:15.242Z,24.87
2017-11-01T12:52:18.794Z,22.63
2017-11-01T12:54:21.817Z,27.33
2017-11-01T12:56:24.652Z,24.73
2017-11-01T12:58:27.431Z,27.03
2017-11-01T13:00:30.581Z,15.67
2017-11-01T13:02:33.521Z,19.47
2017-11-01T13:04:36.303Z,19.60
2017-11-01T13:06:39.078Z,19.03
2017-11-01T13:08:41.837Z,25.23
2017-11-01T13:10:44.602Z,19.00
2017-11-01T13:12:47.330Z,18.97
2017-11-01T13:14:50.088Z,24.60
2017-11-01T13:16:53.464Z,30.43
2017-11-01T13:18:56.242Z,19.03
2017-11-01T13:20:59.123Z,20.77
2017-11-01T13:23:01.842Z,18.27
2017-11-01T13:25:06.129Z,26.63
2017-11-01T13:27:09.099Z,28.33
2017-11-01T13:29:11.980Z,18.33
2017-11-01T13:31:14.859Z,16.73
2017-11-01T13:33:17.638Z,21.90
2017-11-01T13:35:20.415Z,21.07
2017-11-01T13:37:23.198Z,19.93
2017-11-01T13:39:25.994Z,20.87
2017-11-01T13:41:28.957Z,21.57
2017-11-01T13:43:31.839Z,23.67
2017-11-01T13:45:34.821Z,17.53
2017-11-01T13:47:37.701Z,19.20
2017-11-01T13:49:40.416Z,22.17
2017-11-01T13:51:43.258Z,19.37
2017-11-01T13:53:46.346Z,24.17
2017-11-01T13:55:49.547Z,19.13
2017-11-01T13:57:52.275Z,23.90
2017-11-01T13:59:56.419Z,23.37
2017-11-01T14:01:59.303Z,17.97
2017-11-01T14:04:02.012Z,17.20
2017-11-01T14:06:04.748Z,16.73
2017-11-01T14:08:08.865Z,20.33
2017-11-01T14:10:11.747Z,21.63
2017-11-01T14:12:14.441Z,21.60
2017-11-01T14:14:17.407Z,20.20
2017-11-01T14:16:20.201Z,18.93
2017-11-01T14:18:23.348Z,14.47
2017-11-01T14:20:26.815Z,20.23
2017-11-01T14:22:30.098Z,20.77
2017-11-01T14:24:32.797Z,20.87
2017-11-01T14:26:37.276Z,20.93
2017-11-01T14:28:40.694Z,17.33
2017-11-01T14:30:44.084Z,23.20
2017-11-01T14:32:47.024Z,14.63
2017-11-01T14:34:49.906Z,15.70
2017-11-01T14:36:52.612Z,14.13
2017-11-01T14:38:55.470Z,14.90
2017-11-01T14:40:58.165Z,14.33
2017-11-01T14:43:01.887Z,19.47
2017-11-01T14:45:04.818Z,17.00
2017-11-01T14:47:07.700Z,19.33
2017-11-01T14:49:10.408Z,15.70
2017-11-01T14:51:13.135Z,16.60
2017-11-01T14:53:16.034Z,19.47
2017-11-01T14:55:18.916Z,18.50
2017-11-01T14:57:21.796Z,21.47
2017-11-01T14:59:24.664Z,14.90
2017-11-01T15:01:27.587Z,17.53
2017-11-01T15:03:30.344Z,20.33
2017-11-01T15:05:33.216Z,18.00
2017-11-01T15:07:36.201Z,20.07
2017-11-01T15:09:39.007Z,18.53
2017-11-01T15:11:41.865Z,22.00
2017-11-01T15:13:44.586Z,15.77
2017-11-01T15:15:47.632Z,16.27
2017-11-01T15:17:50.411Z,13.40
2017-11-01T15:19:53.282Z,18.07
2017-11-01T15:21:56.062Z,21.10
2017-11-01T15:23:58.934Z,14.70
2017-11-01T15:26:01.738Z,20.33
2017-11-01T15:28:04.535Z,18.60
2017-11-01T15:30:07.230Z,22.27
2017-11-01T15:32:10.054Z,21.63
2017-11-01T15:34:12.789Z,21.23
2017-11-01T15:36:16.355Z,19.73
2017-11-01T15:38:19.066Z,30.60
2017-11-01T15:40:22.556Z,21.20
2017-11-01T15:42:26.223Z,23.73
2017-11-01T15:44:28.978Z,17.93
2017-11-01T15:46:32.387Z,22.17
2017-11-01T15:48:35.253Z,19.23
2017-11-01T15:50:38.199Z,23.30
2017-11-01T15:52:41.787Z,27.73
2017-11-01T15:54:44.716Z,28.03
2017-11-01T15:56:47.524Z,21.60
2017-11-01T15:58:50.276Z,22.00
2017-11-01T16:00:53.258Z,21.53
2017-11-01T16:02:56.139Z,23.70
2017-11-01T16:04:58.861Z,20.53
2017-11-01T16:07:01.694Z,20.23
2017-11-01T16:09:04.644Z,23.47
2017-11-01T16:11:08.380Z,23.33
2017-11-01T16:13:11.203Z,26.40
2017-11-01T16:15:14.035Z,22.97
2017-11-01T16:17:16.926Z,22.87
2017-11-01T16:19:19.722Z,27.03
2017-11-01T16:21:22.488Z,24.47
2017-11-01T16:23:25.192Z,26.03
2017-11-01T16:25:27.923Z,20.90
2017-11-01T16:27:30.736Z,21.83
2017-11-01T16:29:33.452Z,24.27
2017-11-01T16:31:36.982Z,27.63
2017-11-01T16:33:39.972Z,21.30
2017-11-01T16:35:43.433Z,21.23
2017-11-01T16:37:46.239Z,17.67
2017-11-01T16:39:49.046Z,26.40
2017-11-01T16:41:52.126Z,26.67
2017-11-01T16:43:54.984Z,21.43
2017-11-01T16:45:57.895Z,23.67
2017-11-01T16:48:00.760Z,20.13
2017-11-01T16:50:03.931Z,24.57
2017-11-01T16:52:06.655Z,19.77
2017-11-01T16:54:09.354Z,17.10
2017-11-01T16:56:12.885Z,27.00
2017-11-01T16:58:16.482Z,19.63
2017-11-01T17:00:19.343Z,23.73
2017-11-01T17:02:22.158Z,21.40
2017-11-01T17:04:25.701Z,24.20
2017-11-01T17:06:28.523Z,19.50
2017-11-01T17:08:31.397Z,19.57
2017-11-01T17:10:34.302Z,19.60
2017-11-01T17:12:37.055Z,20.40
2017-11-01T17:14:39.858Z,19.20
2017-11-01T17:16:42.837Z,20.70
2017-11-01T17:18:45.700Z,23.37
2017-11-01T17:20:48.436Z,21.20
2017-11-01T17:22:52.074Z,22.70
2017-11-01T17:24:55.879Z,21.30
2017-11-01T17:26:58.760Z,27.50
2017-11-01T17:29:01.744Z,21.97
2017-11-01T17:31:04.703Z,24.20
2017-11-01T17:33:07.505Z,20.37
2017-11-01T17:35:10.300Z,26.30
2017-11-01T17:37:13.094Z,31.03
2017-11-01T17:39:15.946Z,22.83
2017-11-01T17:41:18.824Z,22.73
2017-11-01T17:43:21.603Z,20.20
2017-11-01T17:45:24.483Z,26.47
2017-11-01T17:47:27.365Z,24.80
2017-11-01T17:49:30.271Z,27.60
2017-11-01T17:51:32.964Z,34.23
2017-11-01T17:53:35.701Z,27.53
2017-11-01T17:55:38.420Z,25.27
2017-11-01T17:57:41.256Z,22.90
2017-11-01T17:59:44.136Z,27.07
2017-11-01T18:01:47.236Z,25.60
2017-11-01T18:03:50.104Z,26.93
2017-11-01T18:05:52.986Z,32.00
2017-11-01T18:07:55.796Z,29.43
2017-11-01T18:09:58.644Z,34.03
2017-11-01T18:12:01.524Z,33.43
2017-11-01T18:14:04.307Z,38.50
2017-11-01T18:16:07.192Z,34.97
2017-11-01T18:18:09.963Z,34.93
2017-11-01T18:20:12.881Z,30.10
2017-11-01T18:22:15.641Z,31.20
2017-11-01T18:24:18.518Z,32.40
2017-11-01T18:26:21.307Z,25.83
2017-11-01T18:28:24.266Z,24.87
2017-11-01T18:30:27.175Z,28.23
2017-11-01T18:32:30.016Z,25.13
2017-11-01T18:34:32.805Z,31.70
2017-11-01T18:36:35.714Z,19.53
2017-11-01T18:38:38.569Z,22.93
2017-11-01T18:40:41.344Z,22.70
2017-11-01T18:42:44.037Z,25.10
2017-11-01T18:44:46.902Z,24.40
2017-11-01T18:46:49.605Z,29.90
2017-11-01T18:48:52.458Z,27.00
2017-11-01T18:50:55.239Z,25.63
2017-11-01T18:52:58.018Z,25.73
2017-11-01T18:55:00.756Z,26.40
2017-11-01T18:57:03.574Z,24.43
2017-11-01T18:59:06.352Z,19.77
2017-11-01T19:01:09.079Z,27.10
2017-11-01T19:03:12.627Z,30.40
2017-11-01T19:05:15.348Z,29.67
2017-11-01T19:07:18.286Z,26.20
2017-11-01T19:09:21.039Z,29.27
2017-11-01T19:11:24.559Z,27.90
2017-11-01T19:13:27.441Z,22.73
2017-11-01T19:15:30.322Z,25.40
2017-11-01T19:17:33.017Z,26.47
2017-11-01T19:19:35.879Z,22.90
2017-11-01T19:21:38.904Z,21.30
2017-11-01T19:23:43.108Z,22.97
2017-11-01T19:25:45.954Z,27.87
2017-11-01T19:27:48.837Z,20.97
2017-11-01T19:29:51.561Z,23.40
2017-11-01T19:31:54.254Z,19.27
2017-11-01T19:33:57.991Z,26.67
2017-11-01T19:36:00.771Z,29.00
2017-11-01T19:38:03.545Z,24.70
2017-11-01T19:40:06.425Z,23.73
2017-11-01T19:42:09.180Z,37.90
2017-11-01T19:44:12.645Z,26.20
2017-11-01T19:46:15.371Z,27.53
2017-11-01T19:48:18.090Z,26.13
2017-11-01T19:50:21.038Z,28.43
2017-11-01T19:52:23.955Z,21.57
2017-11-01T19:54:27.431Z,22.07
2017-11-01T19:56:30.295Z,20.50
2017-11-01T19:58:33.276Z,16.03
2017-11-01T20:00:36.184Z,21.50
2017-11-01T20:02:39.046Z,22.03
2017-11-01T20:04:42.009Z,21.93
2017-11-01T20:06:44.800Z,15.07
2017-11-01T20:08:47.695Z,16.47
2017-11-01T20:10:50.384Z,19.13
2017-11-01T20:12:53.153Z,19.40
2017-11-01T20:14:55.973Z,22.97
2017-11-01T20:16:59.617Z,19.70
2017-11-01T20:19:02.399Z,20.57
2017-11-01T20:21:05.137Z,18.53
2017-11-01T20:23:08.871Z,16.70
2017-11-01T20:25:11.754Z,21.30
2017-11-01T20:27:14.635Z,25.20
2017-11-01T20:29:17.516Z,20.83
2017-11-01T20:31:20.214Z,24.20
2017-11-01T20:33:22.970Z,18.33
2017-11-01T20:35:25.876Z,20.23
2017-11-01T20:37:28.628Z,19.77
2017-11-01T20:39:31.425Z,22.77
2017-11-01T20:41:34.232Z,18.77
2017-11-01T20:43:37.069Z,19.80
2017-11-01T20:45:40.051Z,19.90
2017-11-01T20:47:42.844Z,19.77
2017-11-01T20:49:45.540Z,19.13
2017-11-01T20:51:49.138Z,17.73
2017-11-01T20:53:51.987Z,15.17
2017-11-01T20:55:54.686Z,20.80
2017-11-01T20:57:57.436Z,15.70
2017-11-01T21:00:00.424Z,18.63
2017-11-01T21:02:03.312Z,18.40
2017-11-01T21:04:06.185Z,19.57
2017-11-01T21:06:08.987Z,14.63
2017-11-01T21:08:11.952Z,19.93
2017-11-01T21:10:14.944Z,14.87
2017-11-01T21:12:17.810Z,16.10
2017-11-01T21:14:20.532Z,16.20
2017-11-01T21:16:23.232Z,16.57
2017-11-01T21:18:26.759Z,14.73
2017-11-01T21:20:29.565Z,14.07
2017-11-01T21:22:32.322Z,13.77
2017-11-01T21:24:35.127Z,20.20
2017-11-01T21:26:37.995Z,20.10
2017-11-01T21:28:40.790Z,22.20
2017-11-01T21:30:43.841Z,29.30
2017-11-01T21:32:46.642Z,24.80
2017-11-01T21:34:49.373Z,24.30
2017-11-01T21:36:52.072Z,16.60
2017-11-01T21:38:55.158Z,14.07
2017-11-01T21:40:57.964Z,18.10
2017-11-01T21:43:00.672Z,17.87
2017-11-01T21:45:03.422Z,18.80
2017-11-01T21:47:06.193Z,18.40
2017-11-01T21:49:08.955Z,14.63
2017-11-01T21:51:11.767Z,19.80
2017-11-01T21:53:14.712Z,14.77
2017-11-01T21:55:17.549Z,17.53
2017-11-01T21:57:21.110Z,17.43
2017-11-01T21:59:24.072Z,11.93
2017-11-01T22:01:26.954Z,21.10
2017-11-01T22:03:29.834Z,16.80
2017-11-01T22:05:32.639Z,18.30
2017-11-01T22:07:35.418Z,16.13
2017-11-01T22:09:38.129Z,17.23
2017-11-01T22:11:41.576Z,19.80
2017-11-01T22:13:44.292Z,13.50
2017-11-01T22:15:47.017Z,14.80
2017-11-01T22:17:49.897Z,19.83
2017-11-01T22:19:52.778Z,19.70
2017-11-01T22:21:55.556Z,17.43
2017-11-01T22:23:58.348Z,17.33
2017-11-01T22:26:01.151Z,17.90
2017-11-01T22:28:03.861Z,17.00
2017-11-01T22:30:07.387Z,17.60
2017-11-01T22:32:10.080Z,21.97
2017-11-01T22:34:12.819Z,25.67
2017-11-01T22:36:15.722Z,19.13
2017-11-01T22:38:18.527Z,19.10
2017-11-01T22:40:21.278Z,21.63
2017-11-01T22:42:24.083Z,20.00
2017-11-01T22:44:26.938Z,23.10
2017-11-01T22:46:29.820Z,20.60
2017-11-01T22:48:32.699Z,26.70
2017-11-01T22:50:35.504Z,16.00
2017-11-01T22:52:38.261Z,24.73
2017-11-01T22:54:41.138Z,18.60
2017-11-01T22:56:44.123Z,21.87
2017-11-01T22:58:47.003Z,19.70
2017-11-01T23:00:49.886Z,17.53
2017-11-01T23:02:52.828Z,22.23
2017-11-01T23:04:55.664Z,20.50
2017-11-01T23:06:58.526Z,20.13
2017-11-01T23:09:01.263Z,17.40
2017-11-01T23:11:04.799Z,21.23
2017-11-01T23:13:07.682Z,22.10
2017-11-01T23:15:10.381Z,21.00
2017-11-01T23:17:13.158Z,23.00
2017-11-01T23:19:16.019Z,19.10
2017-11-01T23:21:18.819Z,24.73
2017-11-01T23:23:21.573Z,17.67
2017-11-01T23:25:24.354Z,17.20
2017-11-01T23:27:27.335Z,22.03
2017-11-01T23:29:31.138Z,19.50
2017-11-01T23:31:33.917Z,26.73
2017-11-01T23:33:36.613Z,19.70
2017-11-01T23:35:39.395Z,23.70
2017-11-01T23:37:42.117Z,20.37
2017-11-01T23:39:45.749Z,19.10
2017-11-01T23:41:48.730Z,17.37
2017-11-01T23:43:51.728Z,18.67
2017-11-01T23:45:54.519Z,19.47
2017-11-01T23:47:57.306Z,25.50
2017-11-01T23:50:00.049Z,29.97
2017-11-01T23:52:02.931Z,24.00
2017-11-01T23:54:05.640Z,22.80
2017-11-01T23:56:08.514Z,22.43
2017-11-01T23:58:11.208Z,23.50
